Time;durP1;ratioP1;P1;durP2;ratioP2;P2;SDS_P1;SDS_P2;PMS_P1;PMS_P2;Temp;Humidity;BMP_temperature;BMP_pressure;BME280_temperature;BME280_humidity;BME280_pressure;Samples;Min_cycle;Max_cycle;Signal;HPM_P1;HPM_P2
2023/07/12 00:00:59;;;;;;;3.80;1.15;;;;;;;15.32;72.25;99986.00;4996166;28;20627;-45
2023/07/12 00:03:26;;;;;;;6.05;2.03;;;;;;;15.29;72.29;99986.78;5013617;28;20077;-45
2023/07/12 00:05:54;;;;;;;5.55;1.13;;;;;;;15.27;72.42;99978.03;4996171;28;20054;-44
2023/07/12 00:08:22;;;;;;;2.53;0.82;;;;;;;15.19;72.68;99978.03;5013593;28;20064;-44
2023/07/12 00:10:53;;;;;;;2.78;1.40;;;;;;;15.19;72.68;99982.81;5013883;28;20478;-44
2023/07/12 00:13:20;;;;;;;1.60;0.85;;;;;;;15.20;72.71;99984.38;5013218;28;20072;-44
2023/07/12 00:15:48;;;;;;;1.60;0.77;;;;;;;15.17;72.86;99976.78;5013232;28;20048;-45
2023/07/12 00:18:21;;;;;;;3.15;1.20;;;;;;;15.13;72.97;99971.22;5005273;28;20046;-45
2023/07/12 00:20:50;;;;;;;3.17;0.70;;;;;;;15.18;73.07;99970.84;5013777;28;20058;-45
2023/07/12 00:23:18;;;;;;;4.78;1.00;;;;;;;15.14;73.09;99970.03;5004971;28;20042;-44
2023/07/12 00:25:47;;;;;;;2.25;0.80;;;;;;;15.08;73.47;99971.63;5012741;28;20045;-45
2023/07/12 00:28:24;;;;;;;6.03;1.27;;;;;;;15.05;73.53;99972.41;5000840;28;20096;-45
2023/07/12 00:30:53;;;;;;;4.80;0.90;;;;;;;15.03;73.33;99972.00;5013058;28;20054;-47
2023/07/12 00:33:20;;;;;;;5.95;1.30;;;;;;;14.99;73.69;99973.16;5013296;28;20048;-45
2023/07/12 00:35:49;;;;;;;8.45;1.70;;;;;;;14.99;73.80;99973.97;4995688;28;20661;-46
2023/07/12 00:38:20;;;;;;;5.28;1.08;;;;;;;14.97;74.08;99973.56;5013215;28;20053;-45
2023/07/12 00:40:53;;;;;;;3.78;0.77;;;;;;;14.95;74.18;99981.53;5013018;28;20125;-44
2023/07/12 00:43:29;;;;;;;5.75;1.10;;;;;;;14.94;74.06;99976.34;4993559;28;20069;-44
2023/07/12 00:46:00;;;;;;;2.97;0.70;;;;;;;14.93;74.12;99972.75;5012231;28;20081;-44
2023/07/12 00:48:27;;;;;;;3.42;1.08;;;;;;;14.90;74.39;99967.97;5012972;28;20046;-44
2023/07/12 00:50:54;;;;;;;5.18;1.00;;;;;;;14.88;74.59;99978.69;5000193;28;20057;-44
2023/07/12 00:53:26;;;;;;;4.65;1.30;;;;;;;14.90;74.87;99964.41;5011936;28;20057;-45
2023/07/12 00:56:05;;;;;;;2.10;1.55;;;;;;;14.90;74.85;99979.13;5012767;28;20069;-45
2023/07/12 00:58:37;;;;;;;3.35;0.77;;;;;;;14.87;75.07;99965.19;5012595;28;20052;-45
2023/07/12 01:01:06;;;;;;;3.60;1.10;;;;;;;14.82;75.58;99969.16;5012330;28;20408;-45
2023/07/12 01:03:37;;;;;;;2.45;1.17;;;;;;;14.74;75.96;99959.16;5011921;28;20073;-44
2023/07/12 01:06:08;;;;;;;1.80;0.63;;;;;;;14.73;76.13;99965.09;5013081;28;20054;-47
2023/07/12 01:08:41;;;;;;;6.53;1.35;;;;;;;14.69;76.35;99959.53;5012846;28;20118;-46
2023/07/12 01:11:11;;;;;;;3.15;0.98;;;;;;;14.64;76.68;99963.47;5012412;28;20061;-44
2023/07/12 01:13:42;;;;;;;5.60;1.50;;;;;;;14.64;76.89;99962.69;5011047;28;20050;-44
2023/07/12 01:16:12;;;;;;;2.90;1.08;;;;;;;14.66;77.38;99959.53;5016444;28;20042;-44
2023/07/12 01:18:39;;;;;;;4.75;1.85;;;;;;;14.68;77.41;99957.13;5012365;28;20496;-45
2023/07/12 01:21:24;;;;;;;2.25;0.70;;;;;;;14.66;77.85;99965.91;5012391;28;20041;-45
2023/07/12 01:23:51;;;;;;;5.43;2.20;;;;;;;14.60;77.90;99957.13;5011824;28;20050;-45
2023/07/12 01:26:41;;;;;;;2.50;1.27;;;;;;;14.58;78.11;99970.63;5012125;28;20487;-44
2023/07/12 01:29:09;;;;;;;3.33;1.00;;;;;;;14.52;78.18;99977.75;5012171;28;20049;-44
2023/07/12 01:31:37;;;;;;;4.63;0.90;;;;;;;14.43;78.70;99976.50;5012030;28;20054;-45
2023/07/12 01:34:06;;;;;;;4.40;1.25;;;;;;;14.39;78.97;99986.84;5010678;28;20042;-44
2023/07/12 01:36:33;;;;;;;3.05;2.13;;;;;;;14.38;79.35;99972.09;5011436;28;20096;-44
2023/07/12 01:39:01;;;;;;;4.28;1.15;;;;;;;14.40;80.01;99985.66;5012300;28;20046;-46
2023/07/12 01:41:28;;;;;;;6.72;1.40;;;;;;;14.43;79.77;99979.28;5011628;28;20400;-46
2023/07/12 01:43:55;;;;;;;2.25;1.00;;;;;;;14.42;80.29;99978.50;5011759;28;20038;-44
2023/07/12 01:46:23;;;;;;;2.55;1.13;;;;;;;14.44;80.39;99978.13;5005496;28;20104;-45
2023/07/12 01:48:50;;;;;;;3.33;0.70;;;;;;;14.47;80.60;99985.69;5011792;28;20046;-44
2023/07/12 01:51:19;;;;;;;2.63;0.70;;;;;;;14.48;80.85;99985.28;5011915;28;20046;-44
2023/07/12 01:53:47;;;;;;;1.58;0.90;;;;;;;14.48;80.78;99987.31;5010980;28;20038;-44
2023/07/12 01:56:15;;;;;;;2.47;0.85;;;;;;;14.47;80.95;99988.47;5011699;28;20045;-44
2023/07/12 01:58:43;;;;;;;5.10;0.85;;;;;;;14.49;81.11;99980.53;5011601;28;20109;-44
2023/07/12 02:01:10;;;;;;;3.20;0.88;;;;;;;14.50;81.44;99982.13;5011431;28;20089;-46
2023/07/12 02:03:38;;;;;;;1.65;0.90;;;;;;;14.50;81.49;99984.91;5010845;28;20103;-44
2023/07/12 02:06:05;;;;;;;1.48;0.85;;;;;;;14.50;81.82;99984.91;5011511;28;20057;-44
2023/07/12 02:08:32;;;;;;;3.63;0.93;;;;;;;14.48;82.01;99971.38;5011327;28;20065;-46
2023/07/12 02:10:58;;;;;;;4.50;0.80;;;;;;;14.47;82.26;99980.13;5011616;28;20056;-44
2023/07/12 02:13:25;;;;;;;4.07;1.13;;;;;;;14.48;82.22;99978.94;5010562;28;20480;-44
2023/07/12 02:15:52;;;;;;;1.60;1.00;;;;;;;14.49;82.41;99983.31;5011492;28;20041;-44
2023/07/12 02:18:20;;;;;;;6.70;1.48;;;;;;;14.50;82.38;99980.16;5011210;28;20057;-45
2023/07/12 02:20:46;;;;;;;3.47;1.38;;;;;;;14.48;82.80;99985.28;5011351;28;20447;-44
2023/07/12 02:23:13;;;;;;;2.20;0.80;;;;;;;14.46;82.85;99973.75;5010247;28;20045;-45
2023/07/12 02:25:41;;;;;;;4.95;1.20;;;;;;;14.47;82.74;99980.13;5011647;28;20065;-44
2023/07/12 02:28:08;;;;;;;2.13;0.80;;;;;;;14.44;82.59;99975.31;5011238;28;20116;-45
2023/07/12 02:30:37;;;;;;;4.22;0.98;;;;;;;14.40;82.98;99974.53;5011161;28;20069;-44
2023/07/12 02:33:04;;;;;;;4.05;1.60;;;;;;;14.38;82.97;99977.69;5000514;28;20092;-44
2023/07/12 02:35:31;;;;;;;3.83;1.10;;;;;;;14.35;83.23;99972.88;5010571;28;20042;-45
2023/07/12 02:37:59;;;;;;;2.25;1.02;;;;;;;14.34;83.32;99970.50;5011563;28;20396;-44
2023/07/12 02:40:27;;;;;;;2.70;0.88;;;;;;;14.33;83.27;99968.88;5010780;28;20817;-46
2023/07/12 02:42:54;;;;;;;2.05;0.95;;;;;;;14.32;83.54;99968.09;5010188;28;20042;-44
2023/07/12 02:45:22;;;;;;;3.20;1.08;;;;;;;14.30;83.65;99964.06;5008414;28;20042;-46
2023/07/12 02:47:49;;;;;;;6.13;1.00;;;;;;;14.30;83.58;99964.06;4999666;28;20049;-44
2023/07/12 02:50:16;;;;;;;2.53;1.15;;;;;;;14.29;83.42;99968.06;5015046;28;20462;-45
2023/07/12 02:52:43;;;;;;;2.45;0.93;;;;;;;14.24;83.70;99971.22;5014341;28;20551;-44
2023/07/12 02:55:10;;;;;;;2.20;1.10;;;;;;;14.19;83.82;99974.38;5014639;28;20042;-44
2023/07/12 02:57:37;;;;;;;3.15;0.90;;;;;;;14.16;83.96;99975.13;5015255;28;20049;-45
2023/07/12 03:00:05;;;;;;;1.50;1.00;;;;;;;14.14;84.05;99966.38;5014684;28;20045;-44
2023/07/12 03:02:33;;;;;;;2.88;1.08;;;;;;;14.14;84.13;99974.72;5074259;22;20059;-46
2023/07/12 03:05:00;;;;;;;1.85;0.82;;;;;;;14.07;84.33;99977.44;4975926;28;20106;-45
2023/07/12 03:07:27;;;;;;;2.80;0.77;;;;;;;14.02;84.42;99975.84;4958827;28;20142;-45
2023/07/12 03:09:58;;;;;;;3.22;1.08;;;;;;;14.02;84.56;99973.03;4975702;28;20058;-45
2023/07/12 03:12:25;;;;;;;4.00;1.30;;;;;;;14.03;84.32;99978.22;4974671;28;20373;-45
2023/07/12 03:14:52;;;;;;;3.17;0.93;;;;;;;14.06;84.66;99981.44;4975278;28;20043;-46
2023/07/12 03:17:19;;;;;;;4.97;1.58;;;;;;;14.03;84.93;99971.88;4967515;28;20137;-46
2023/07/12 03:19:47;;;;;;;3.80;0.82;;;;;;;14.04;84.87;99982.59;4975408;28;20043;-47
2023/07/12 03:22:14;;;;;;;3.00;1.40;;;;;;;14.04;84.81;99974.25;4974800;28;20512;-46
2023/07/12 03:24:40;;;;;;;2.85;1.00;;;;;;;14.04;85.01;99985.41;4974698;28;20053;-44
2023/07/12 03:27:07;;;;;;;2.17;0.90;;;;;;;14.05;85.14;99975.06;4975568;28;20055;-46
2023/07/12 03:29:34;;;;;;;0.70;0.70;;;;;;;14.07;85.44;99969.09;4975278;28;20043;-45
2023/07/12 03:32:01;;;;;;;1.65;0.75;;;;;;;14.10;85.18;99971.09;4974600;28;20043;-44
2023/07/12 03:34:31;;;;;;;2.78;0.88;;;;;;;14.11;85.31;99967.16;4974578;28;20050;-47
2023/07/12 03:36:58;;;;;;;5.57;1.30;;;;;;;14.11;85.36;99967.94;4957662;28;20097;-45
2023/07/12 03:39:25;;;;;;;3.13;2.42;;;;;;;14.09;85.61;99967.53;4974718;28;20042;-45
2023/07/12 03:41:52;;;;;;;7.75;1.88;;;;;;;14.09;85.70;99970.31;4974503;28;20520;-45
2023/07/12 03:44:19;;;;;;;3.00;1.27;;;;;;;14.11;85.72;99962.34;4958515;28;20564;-46
2023/07/12 03:46:45;;;;;;;2.00;0.70;;;;;;;14.15;85.72;99967.97;4968736;28;20038;-46
2023/07/12 03:49:13;;;;;;;1.83;0.63;;;;;;;14.16;85.93;99969.56;4974694;28;20795;-45
2023/07/12 03:51:39;;;;;;;2.78;1.00;;;;;;;14.18;85.97;99972.75;4975110;28;20051;-45
2023/07/12 03:54:06;;;;;;;3.70;1.30;;;;;;;14.20;85.88;99965.59;4972637;28;20053;-45
2023/07/12 03:56:33;;;;;;;4.05;3.35;;;;;;;14.24;86.03;99960.06;4974774;28;20106;-50
2023/07/12 03:59:00;;;;;;;3.35;1.00;;;;;;;14.26;86.11;99960.47;4961135;28;20397;-45
2023/07/12 04:01:27;;;;;;;5.28;1.52;;;;;;;14.24;85.97;99960.88;4941660;28;20169;-47
2023/07/12 04:03:54;;;;;;;3.75;1.20;;;;;;;14.25;86.19;99967.22;4973997;28;20043;-46
2023/07/12 04:06:21;;;;;;;6.50;1.40;;;;;;;14.25;86.14;99956.88;4974331;28;20047;-46
2023/07/12 04:08:47;;;;;;;2.20;1.00;;;;;;;14.27;86.29;99948.16;4974664;28;20061;-46
2023/07/12 04:11:30;;;;;;;3.10;1.10;;;;;;;14.27;86.70;99953.72;4974554;28;20548;-45
2023/07/12 04:13:59;;;;;;;;;;;;;;;14.24;86.63;99943.38;4972504;28;20050;-48
2023/07/12 04:16:26;;;;;;;2.40;1.17;;;;;;;14.26;85.93;99949.34;4972224;28;20346;-45
2023/07/12 04:18:53;;;;;;;2.58;1.20;;;;;;;14.26;86.13;99952.13;4974368;28;20457;-45
2023/07/12 04:21:21;;;;;;;2.60;1.23;;;;;;;14.26;86.28;99952.13;4974127;28;20518;-45
2023/07/12 04:23:49;;;;;;;3.53;1.27;;;;;;;14.25;86.78;99945.75;4973703;28;20085;-46
2023/07/12 04:26:20;;;;;;;1.58;1.00;;;;;;;14.26;86.81;99947.34;4974557;28;20039;-46
2023/07/12 04:28:50;;;;;;;3.35;1.17;;;;;;;14.27;86.92;99945.38;4974510;28;20485;-45
2023/07/12 04:31:19;;;;;;;4.07;1.70;;;;;;;14.28;86.97;99944.19;4973721;28;20042;-44
2023/07/12 04:33:47;;;;;;;1.75;1.30;;;;;;;14.28;87.15;99953.34;4972026;28;20047;-44
2023/07/12 04:36:17;;;;;;;4.70;2.13;;;;;;;14.29;87.29;99945.78;4972999;28;20086;-47
2023/07/12 04:38:44;;;;;;;2.55;1.88;;;;;;;14.27;87.34;99942.59;4974078;28;20650;-45
2023/07/12 04:41:11;;;;;;;3.47;2.00;;;;;;;14.27;87.82;99937.03;4973644;28;20145;-44
2023/07/12 04:43:38;;;;;;;4.15;2.13;;;;;;;14.27;87.89;99937.03;4972150;28;20046;-46
2023/07/12 04:46:05;;;;;;;8.73;2.58;;;;;;;14.26;88.14;99941.00;4963409;28;20047;-45
2023/07/12 04:48:33;;;;;;;7.07;1.90;;;;;;;14.26;88.39;99946.56;4973483;28;20505;-46
2023/07/12 04:51:03;;;;;;;4.88;2.10;;;;;;;14.27;88.29;99945.38;4974059;28;20039;-45
2023/07/12 04:53:31;;;;;;;4.32;1.98;;;;;;;14.26;88.58;99946.56;4972684;28;20050;-45
2023/07/12 04:55:58;;;;;;;4.82;2.17;;;;;;;14.26;88.92;99950.16;4973970;28;20043;-45
2023/07/12 04:58:26;;;;;;;8.13;1.92;;;;;;;14.30;88.87;99961.28;4973101;28;20496;-46
2023/07/12 05:00:55;;;;;;;4.28;2.55;;;;;;;14.31;89.04;99960.94;4973922;28;20047;-44
2023/07/12 05:03:22;;;;;;;6.13;2.33;;;;;;;14.35;89.25;99958.19;4972440;28;20047;-45
2023/07/12 05:05:49;;;;;;;4.28;2.20;;;;;;;14.36;89.25;99966.13;4973684;28;20081;-44
2023/07/12 05:08:16;;;;;;;4.32;2.28;;;;;;;14.32;89.71;99967.31;4973540;28;20061;-45
2023/07/12 05:10:43;;;;;;;4.30;2.05;;;;;;;14.31;89.67;99968.47;4973446;28;20059;-44
2023/07/12 05:13:10;;;;;;;3.35;1.33;;;;;;;14.29;89.99;99965.28;4972680;28;20074;-45
2023/07/12 05:15:37;;;;;;;4.03;1.30;;;;;;;14.30;90.01;99975.22;4972668;28;20127;-45
2023/07/12 05:18:04;;;;;;;1.48;1.33;;;;;;;14.30;90.08;99969.63;4972862;28;20039;-45
2023/07/12 05:20:31;;;;;;;2.88;1.40;;;;;;;14.30;89.98;99973.22;4973176;28;20060;-45
2023/07/12 05:22:58;;;;;;;3.50;2.28;;;;;;;14.31;90.24;99982.38;4972418;28;20043;-45
2023/07/12 05:25:25;;;;;;;2.97;1.60;;;;;;;14.34;90.18;99976.06;4955994;28;20043;-45
2023/07/12 05:27:55;;;;;;;4.40;1.48;;;;;;;14.39;90.29;99978.47;4972889;28;20496;-44
2023/07/12 05:30:22;;;;;;;3.00;1.33;;;;;;;14.42;90.12;99980.50;4973372;28;20053;-44
2023/07/12 05:32:49;;;;;;;2.60;1.50;;;;;;;14.45;90.25;99976.94;4954798;28;20042;-43
2023/07/12 05:35:16;;;;;;;4.28;1.48;;;;;;;14.48;89.94;99976.94;4973047;28;20105;-43
2023/07/12 05:37:43;;;;;;;4.72;1.60;;;;;;;14.49;90.11;99983.31;4953443;28;20050;-44
2023/07/12 05:40:10;;;;;;;4.18;1.52;;;;;;;14.51;90.11;99989.28;4972876;28;20105;-45
2023/07/12 05:42:40;;;;;;;2.50;1.80;;;;;;;14.53;90.12;99973.00;4972769;28;20038;-43
2023/07/12 05:45:09;;;;;;;4.97;1.45;;;;;;;14.54;90.04;99988.50;4945860;29;20047;-44
2023/07/12 05:47:37;;;;;;;5.85;1.90;;;;;;;14.52;89.95;99988.09;4970266;28;20069;-44
2023/07/12 05:50:06;;;;;;;6.15;1.63;;;;;;;14.48;90.09;99987.31;4972501;28;20047;-44
2023/07/12 05:52:33;;;;;;;7.18;2.55;;;;;;;14.48;89.97;99990.09;4972829;28;20468;-44
2023/07/12 05:55:00;;;;;;;10.98;3.55;;;;;;;14.51;89.99;100003.22;4972661;28;20054;-46
2023/07/12 05:57:27;;;;;;;3.75;2.25;;;;;;;14.53;90.09;100001.63;4971757;28;20101;-44
2023/07/12 05:59:54;;;;;;;3.95;1.60;;;;;;;14.56;90.10;100000.84;4972496;28;20039;-44
2023/07/12 06:02:20;;;;;;;3.55;2.03;;;;;;;14.62;90.00;100006.84;4972693;28;20062;-45
2023/07/12 06:04:47;;;;;;;4.03;1.80;;;;;;;14.67;89.83;100005.69;4972352;28;20038;-47
2023/07/12 06:07:14;;;;;;;2.88;1.70;;;;;;;14.70;89.67;100007.69;4971461;28;20134;-45
2023/07/12 06:09:41;;;;;;;4.03;1.80;;;;;;;14.71;89.79;100010.09;4972572;28;20039;-46
2023/07/12 06:12:09;;;;;;;4.78;2.00;;;;;;;14.72;89.71;100013.69;4972604;28;20120;-45
2023/07/12 06:14:36;;;;;;;18.90;3.53;;;;;;;14.69;89.62;100004.13;4972046;28;20051;-47
2023/07/12 06:17:04;;;;;;;4.53;1.80;;;;;;;14.69;89.64;100018.06;4971216;28;20488;-44
2023/07/12 06:19:31;;;;;;;3.78;1.73;;;;;;;14.70;89.62;100016.84;4972326;28;20046;-44
2023/07/12 06:21:58;;;;;;;5.50;2.42;;;;;;;14.68;89.65;100016.44;4971105;28;20047;-44
2023/07/12 06:24:25;;;;;;;2.97;1.83;;;;;;;14.68;89.73;100018.44;4972166;28;20505;-44
2023/07/12 06:26:52;;;;;;;5.00;3.30;;;;;;;14.69;89.81;100026.41;4971925;28;20051;-44
2023/07/12 06:29:19;;;;;;;5.55;1.90;;;;;;;14.72;89.90;100030.41;4972298;28;20059;-45
2023/07/12 06:31:46;;;;;;;5.22;2.00;;;;;;;14.73;89.64;100027.22;4972214;28;20515;-44
2023/07/12 06:34:12;;;;;;;4.65;1.38;;;;;;;14.78;89.41;100024.06;4972063;28;20086;-44
2023/07/12 06:36:39;;;;;;;2.95;1.88;;;;;;;14.81;89.28;100023.28;4971451;28;20051;-44
2023/07/12 06:39:06;;;;;;;3.15;2.10;;;;;;;14.84;89.20;100025.28;4972328;28;20090;-45
2023/07/12 06:41:33;;;;;;;4.13;1.77;;;;;;;14.87;89.10;100021.72;4972270;28;20043;-47
2023/07/12 06:44:00;;;;;;;4.15;1.80;;;;;;;14.91;88.79;100032.88;4970717;28;20043;-45
2023/07/12 06:46:27;;;;;;;8.73;3.20;;;;;;;14.90;88.63;100029.31;4963044;28;20051;-46
2023/07/12 06:48:53;;;;;;;6.10;2.75;;;;;;;14.93;88.65;100031.28;4971669;28;20055;-46
2023/07/12 06:51:21;;;;;;;5.70;1.92;;;;;;;15.00;88.90;100025.75;4954687;28;20110;-45
2023/07/12 06:53:48;;;;;;;4.43;1.80;;;;;;;15.06;88.37;100026.94;4972218;28;20470;-46
2023/07/12 06:56:15;;;;;;;4.60;1.85;;;;;;;15.09;88.03;100031.75;4972064;28;20051;-45
2023/07/12 06:58:42;;;;;;;6.88;1.83;;;;;;;15.12;87.79;100035.72;4971163;28;20047;-46
2023/07/12 07:01:10;;;;;;;4.00;1.90;;;;;;;15.12;87.45;100033.75;4971974;28;20043;-45
2023/07/12 07:03:37;;;;;;;5.70;2.15;;;;;;;15.09;87.02;100040.09;4971689;28;20047;-44
2023/07/12 07:06:04;;;;;;;5.30;1.48;;;;;;;15.09;87.00;100050.50;4971953;28;20058;-47
2023/07/12 07:08:32;;;;;;;2.90;1.83;;;;;;;15.10;86.79;100057.66;4971185;28;20039;-44
2023/07/12 07:11:00;;;;;;;20.58;2.50;;;;;;;15.09;86.63;100054.06;4971960;28;20046;-46
2023/07/12 07:13:28;;;;;;;6.22;1.40;;;;;;;15.14;86.50;100045.31;4971608;28;20121;-48
2023/07/12 07:15:55;;;;;;;6.63;2.45;;;;;;;15.19;86.17;100056.09;4970680;28;20117;-44
2023/07/12 07:18:22;;;;;;;5.25;1.33;;;;;;;15.20;85.98;100059.66;4968490;28;20047;-44
2023/07/12 07:20:51;;;;;;;5.85;1.30;;;;;;;15.18;85.58;100062.84;4971396;28;20050;-47
2023/07/12 07:23:18;;;;;;;6.10;1.27;;;;;;;15.22;85.54;100060.88;4971059;28;20448;-46
2023/07/12 07:25:46;;;;;;;4.57;1.63;;;;;;;15.23;85.24;100070.84;4971873;28;20137;-44
2023/07/12 07:28:13;;;;;;;3.30;1.50;;;;;;;15.23;85.06;100067.25;4970850;28;20043;-44
2023/07/12 07:30:41;;;;;;;3.45;1.30;;;;;;;15.30;84.95;100072.06;4971584;28;20049;-45
2023/07/12 07:33:08;;;;;;;8.43;2.03;;;;;;;15.35;84.80;100077.25;4973543;28;20054;-48
2023/07/12 07:35:35;;;;;;;4.15;1.23;;;;;;;15.40;84.66;100074.09;4975317;28;20046;-45
2023/07/12 07:38:02;;;;;;;5.88;1.88;;;;;;;15.36;84.29;100079.66;4974447;28;20042;-44
2023/07/12 07:40:29;;;;;;;3.83;1.42;;;;;;;15.33;84.19;100074.06;4973807;28;20547;-46
2023/07/12 07:42:56;;;;;;;5.88;1.90;;;;;;;15.29;84.08;100092.78;4975045;28;20042;-47
2023/07/12 07:45:26;;;;;;;4.10;1.75;;;;;;;15.22;nan;100083.19;4953695;28;20060;-45
2023/07/12 07:47:53;;;;;;;2.55;1.40;;;;;;;15.20;83.76;100079.19;4957382;28;20059;-46
2023/07/12 07:50:20;;;;;;;7.50;1.55;;;;;;;15.20;83.94;100082.78;4956047;28;20440;-45
2023/07/12 07:52:48;;;;;;;4.45;1.15;;;;;;;15.18;83.42;100070.41;4957078;28;20074;-45
2023/07/12 07:55:15;;;;;;;3.47;1.35;;;;;;;15.18;82.92;100076.00;4974551;28;20082;-46
2023/07/12 07:57:42;;;;;;;5.30;1.13;;;;;;;15.21;82.89;100062.09;4957234;28;20062;-50
2023/07/12 08:00:10;;;;;;;4.57;1.08;;;;;;;15.24;82.40;100072.44;4974217;28;20085;-45
2023/07/12 08:02:37;;;;;;;7.85;1.38;;;;;;;15.30;82.25;100072.06;4973583;28;20047;-46
2023/07/12 08:05:05;;;;;;;5.80;1.25;;;;;;;15.35;81.88;100074.47;4974449;28;20125;-46
2023/07/12 08:07:43;;;;;;;6.72;1.55;;;;;;;15.37;81.99;100077.66;4974625;28;20046;-46
2023/07/12 08:10:14;;;;;;;5.68;1.45;;;;;;;15.38;81.61;100084.84;4974213;28;20386;-48
2023/07/12 08:12:41;;;;;;;2.95;1.20;;;;;;;15.35;81.27;100080.06;4975282;28;20043;-45
2023/07/12 08:15:09;;;;;;;8.93;1.48;;;;;;;15.32;81.26;100097.56;4972958;28;20101;-47
2023/07/12 08:17:37;;;;;;;4.75;1.23;;;;;;;15.34;81.21;100092.38;4974716;28;20050;-47
2023/07/12 08:20:08;;;;;;;3.33;1.02;;;;;;;15.37;80.95;100094.41;4974060;28;20105;-46
2023/07/12 08:22:35;;;;;;;2.67;1.10;;;;;;;15.39;80.81;100098.38;4973755;28;20493;-46
2023/07/12 08:25:02;;;;;;;3.83;1.10;;;;;;;15.48;80.78;100101.66;4973451;28;20043;-47
2023/07/12 08:27:32;;;;;;;3.83;1.20;;;;;;;15.56;80.54;100099.69;4974348;28;20058;-45
2023/07/12 08:29:59;;;;;;;8.68;1.48;;;;;;;15.64;80.16;100098.50;4974241;28;20042;-47
2023/07/12 08:32:30;;;;;;;4.55;1.30;;;;;;;15.74;80.14;100109.69;4974260;28;20511;-48
2023/07/12 08:34:57;;;;;;;3.67;1.20;;;;;;;15.85;80.25;100115.28;4973059;28;20054;-45
2023/07/12 08:37:25;;;;;;;2.33;0.80;;;;;;;15.81;79.57;100114.47;4973726;28;20042;-47
2023/07/12 08:39:52;;;;;;;3.95;1.25;;;;;;;15.78;79.53;100107.69;4957020;28;20110;-46
2023/07/12 08:42:31;;;;;;;5.20;1.10;;;;;;;15.76;79.41;100112.06;4973160;28;20053;-46
2023/07/12 08:45:00;;;;;;;3.72;1.60;;;;;;;15.77;79.60;100120.06;4963556;28;20507;-45
2023/07/12 08:47:32;;;;;;;2.83;1.00;;;;;;;15.77;79.22;100113.69;4971507;28;20051;-50
2023/07/12 08:49:59;;;;;;;;;;;;;;;15.79;79.11;100116.88;4974482;28;20047;-46
2023/07/12 08:52:32;;;;;;;1.83;1.10;;;;;;;15.83;79.36;100117.69;4973844;28;19922;-45
2023/07/12 08:55:01;;;;;;;6.32;0.95;;;;;;;15.88;78.61;100127.66;4972543;28;20064;-48
2023/07/12 08:57:29;;;;;;;3.63;0.80;;;;;;;15.97;78.61;100134.44;4956516;28;20101;-47
2023/07/12 09:00:10;;;;;;;2.78;1.00;;;;;;;16.15;78.37;100118.50;4973563;28;20047;-46
2023/07/12 09:02:37;;;;;;;6.75;2.85;;;;;;;16.27;77.69;100132.09;4973543;28;20492;-45
2023/07/12 09:05:17;;;;;;;2.75;0.60;;;;;;;16.36;77.68;100135.28;4955470;28;20399;-48
2023/07/12 09:08:09;;;;;;;2.53;1.10;;;;;;;16.52;77.38;100131.31;4974153;28;20051;-47
2023/07/12 09:10:39;;;;;;;3.28;0.63;;;;;;;16.61;76.82;100126.13;4973315;28;20055;-50
2023/07/12 09:13:10;;;;;;;0.88;0.70;;;;;;;16.68;76.52;100128.94;4976375;28;20046;-46
2023/07/12 09:15:42;;;;;;;4.40;0.75;;;;;;;16.66;76.15;100125.72;4970521;28;20117;-48
2023/07/12 09:18:33;;;;;;;2.88;1.30;;;;;;;16.67;76.13;100132.91;4970978;28;20067;-46
2023/07/12 09:21:13;;;;;;;4.22;1.00;;;;;;;17.03;76.38;100134.44;4971673;28;20047;-46
2023/07/12 09:23:42;;;;;;;2.92;0.55;;;;;;;17.33;74.82;100137.56;4955819;28;20047;-50
2023/07/12 09:26:22;;;;;;;2.60;0.68;;;;;;;17.47;74.64;100134.69;4973092;28;20051;-45
2023/07/12 09:28:51;;;;;;;3.10;0.77;;;;;;;17.63;74.21;100140.63;4972969;28;20053;-48
2023/07/12 09:31:23;;;;;;;3.33;0.63;;;;;;;18.04;74.14;100154.00;4972191;28;20101;-46
2023/07/12 09:33:53;;;;;;;5.07;1.05;;;;;;;18.41;72.79;100140.13;4972874;28;20464;-47
2023/07/12 09:36:20;;;;;;;3.42;0.75;;;;;;;18.58;72.22;100156.06;4960470;28;20047;-48
2023/07/12 09:38:47;;;;;;;5.07;0.88;;;;;;;18.69;71.27;100139.91;4972717;28;20452;-46
2023/07/12 09:41:22;;;;;;;1.00;0.50;;;;;;;18.83;71.00;100147.41;4973061;28;20051;-48
2023/07/12 09:43:54;;;;;;;1.73;0.55;;;;;;;19.31;70.43;100150.09;4972692;28;20469;-48
2023/07/12 09:46:21;;;;;;;;;;;;;;;19.89;69.71;100166.63;4973177;28;20444;-46
2023/07/12 09:49:06;;;;;;;5.00;0.93;;;;;;;20.15;68.24;100164.28;4972748;28;20025;-43
2023/07/12 09:51:35;;;;;;;1.73;0.60;;;;;;;20.29;67.11;100173.31;4973095;28;20043;-44
2023/07/12 09:54:23;;;;;;;6.40;2.05;;;;;;;20.42;66.46;100162.28;4971557;28;20043;-45
2023/07/12 09:56:58;;;;;;;3.60;0.57;;;;;;;20.51;66.01;100166.16;4971080;28;20065;-46
2023/07/12 09:59:31;;;;;;;3.38;0.85;;;;;;;20.49;65.21;100159.38;4955598;28;20061;-46
2023/07/12 10:02:10;;;;;;;2.03;1.23;;;;;;;20.32;64.86;100154.81;4972097;28;20452;-47
2023/07/12 10:04:44;;;;;;;7.82;0.85;;;;;;;20.36;64.43;100161.94;4971575;28;20161;-47
2023/07/12 10:07:33;;;;;;;1.25;0.50;;;;;;;20.61;64.50;100164.38;4960769;28;20050;-46
2023/07/12 10:10:00;;;;;;;4.40;0.50;;;;;;;21.13;62.99;100162.66;4972584;28;20042;-47
2023/07/12 10:12:38;;;;;;;2.40;1.02;;;;;;;21.41;62.32;100158.50;4967222;28;20053;-47
2023/07/12 10:15:07;;;;;;;1.67;0.50;;;;;;;21.70;61.20;100165.16;4967898;28;20047;-46
2023/07/12 10:17:38;;;;;;;1.02;0.52;;;;;;;21.99;59.91;100168.16;4970216;28;20377;-50
2023/07/12 10:20:12;;;;;;;3.15;0.40;;;;;;;21.83;59.01;100165.28;4958368;28;20046;-47
2023/07/12 10:22:43;;;;;;;2.10;0.40;;;;;;;21.48;59.33;100168.81;4950169;28;20110;-46
2023/07/12 10:25:27;;;;;;;2.17;0.40;;;;;;;21.22;60.13;100174.16;4970707;28;20062;-48
2023/07/12 10:28:16;;;;;;;4.45;0.60;;;;;;;20.79;60.29;100184.56;4949748;28;20054;-48
2023/07/12 10:30:46;;;;;;;3.45;0.50;;;;;;;20.46;60.13;100188.34;4971218;28;20510;-46
2023/07/12 10:33:26;;;;;;;1.17;0.40;;;;;;;20.16;60.84;100191.16;4968613;28;20058;-46
2023/07/12 10:35:59;;;;;;;3.00;0.40;;;;;;;19.81;61.18;100198.06;4970222;28;20039;-49
2023/07/12 10:38:26;;;;;;;1.60;1.50;;;;;;;19.60;61.59;100199.13;4965825;28;20062;-48
2023/07/12 10:41:06;;;;;;;4.45;0.40;;;;;;;19.41;61.79;100197.72;4968123;28;20046;-46
2023/07/12 10:43:45;;;;;;;1.92;0.25;;;;;;;19.29;61.54;100194.63;4968055;28;20055;-50
2023/07/12 10:46:24;;;;;;;1.45;0.30;;;;;;;19.22;61.87;100200.34;4938384;28;21537;-50
2023/07/12 10:48:54;;;;;;;1.25;0.40;;;;;;;19.14;62.14;100201.63;4930332;28;20514;-49
2023/07/12 10:51:36;;;;;;;2.33;1.90;;;;;;;19.07;62.13;100210.88;4959108;28;20382;-45
2023/07/12 10:54:03;;;;;;;;;;;;;;;18.96;62.18;100209.38;4966985;28;20129;-46
2023/07/12 10:56:34;;;;;;;1.92;0.65;;;;;;;18.94;62.22;100228.66;4971767;28;20403;-47
2023/07/12 10:59:33;;;;;;;0.57;0.40;;;;;;;19.03;62.33;100226.16;4958519;28;20452;-46
2023/07/12 11:02:27;;;;;;;2.30;0.45;;;;;;;19.17;62.07;100220.41;4946672;28;20063;-48
2023/07/12 11:04:54;;;;;;;2.55;0.60;;;;;;;19.07;62.40;100226.91;4967050;28;20049;-46
2023/07/12 11:07:21;;;;;;;0.75;0.68;;;;;;;19.08;62.40;100220.09;4963786;28;20050;-48
2023/07/12 11:09:51;;;;;;;1.73;0.43;;;;;;;19.18;62.01;100222.00;4932811;28;20054;-50
2023/07/12 11:12:28;;;;;;;2.50;0.50;;;;;;;19.29;62.35;100225.50;4933885;28;20055;-49
2023/07/12 11:15:06;;;;;;;1.65;0.60;;;;;;;19.37;62.09;100227.03;4931802;28;20169;-48
2023/07/12 11:17:58;;;;;;;4.88;0.50;;;;;;;19.40;61.59;100227.03;4931903;28;20742;-50
2023/07/12 11:20:30;;;;;;;0.77;0.30;;;;;;;19.40;61.51;100217.81;4954940;28;20150;-45
2023/07/12 11:22:59;;;;;;;;;;;;;;;19.55;62.13;100219.25;4972938;28;20058;-49
2023/07/12 11:25:50;;;;;;;1.05;0.40;;;;;;;19.87;61.71;100216.84;4973092;28;19926;-46
2023/07/12 11:28:39;;;;;;;1.90;0.35;;;;;;;20.19;60.97;100212.81;4973348;28;20051;-48
2023/07/12 11:31:23;;;;;;;1.75;0.30;;;;;;;20.33;60.28;100210.59;4972711;28;20050;-46
2023/07/12 11:33:56;;;;;;;1.38;0.30;;;;;;;20.37;59.98;100216.97;4970303;28;20452;-50
2023/07/12 11:36:28;;;;;;;1.73;0.30;;;;;;;20.38;59.80;100217.78;4975189;28;20051;-48
2023/07/12 11:38:56;;;;;;;2.60;0.45;;;;;;;20.32;59.72;100211.03;4970077;28;20043;-45
2023/07/12 11:41:26;;;;;;;1.05;0.40;;;;;;;20.22;59.77;100211.97;4965264;28;20051;-45
2023/07/12 11:44:00;;;;;;;0.75;0.35;;;;;;;20.27;59.70;100211.50;4965942;28;20059;-47